Time;durP1;ratioP1;P1;durP2;ratioP2;P2;SDS_P1;SDS_P2;PMS_P1;PMS_P2;Temp;Humidity;BMP_temperature;BMP_pressure;BME280_temperature;BME280_humidity;BME280_pressure;Samples;Min_cycle;Max_cycle;Signal;HPM_P1;HPM_P2
2022/01/11 00:00:57;;;;;;;4.18;1.70;;;8.40;99.90;;;;;;5050096;28;20029;-78
2022/01/11 00:03:24;;;;;;;4.65;1.60;;;8.50;99.90;;;;;;5049787;28;20384;-77
2022/01/11 00:08:18;;;;;;;8.60;2.00;;;8.50;99.90;;;;;;5049917;28;20121;-78
2022/01/11 00:10:50;;;;;;;4.70;1.92;;;8.50;99.90;;;;;;5031735;28;20021;-78
2022/01/11 00:13:18;;;;;;;4.00;2.10;;;8.50;99.90;;;;;;5049794;28;20105;-78
2022/01/11 00:15:45;;;;;;;9.00;2.75;;;8.50;99.90;;;;;;5049668;28;20036;-77
2022/01/11 00:18:11;;;;;;;;;;;8.50;99.90;;;;;;5049995;28;20488;-78
2022/01/11 00:20:38;;;;;;;4.03;1.80;;;8.50;99.90;;;;;;5049614;28;19916;-76
2022/01/11 00:25:36;;;;;;;4.65;1.85;;;8.50;99.90;;;;;;5049447;28;20083;-78
2022/01/11 00:28:04;;;;;;;5.40;1.90;;;8.60;99.90;;;;;;5049725;28;20117;-78
2022/01/11 00:30:34;;;;;;;8.25;2.00;;;8.60;99.90;;;;;;5031536;28;20029;-78
2022/01/11 00:33:04;;;;;;;16.92;4.30;;;8.60;99.90;;;;;;5049763;28;20420;-78
2022/01/11 00:35:45;;;;;;;5.55;2.45;;;8.70;99.90;;;;;;5050590;28;20111;-77
2022/01/11 00:38:19;;;;;;;4.93;1.90;;;8.70;99.90;;;;;;5053015;28;20029;-77
2022/01/11 00:40:50;;;;;;;7.13;2.33;;;8.70;99.90;;;;;;5053279;28;20102;-77
2022/01/11 00:43:19;;;;;;;6.72;2.30;;;8.70;99.90;;;;;;5053354;28;20037;-78
2022/01/11 00:45:46;;;;;;;5.13;1.92;;;8.70;99.90;;;;;;5053001;28;20273;-78
2022/01/11 00:48:13;;;;;;;6.20;1.80;;;8.60;99.90;;;;;;5053095;28;20043;-77
2022/01/11 00:50:39;;;;;;;4.10;1.80;;;8.60;99.90;;;;;;5052881;28;20102;-77
2022/01/11 00:53:06;;;;;;;5.23;1.97;;;8.60;99.90;;;;;;5052674;28;20093;-77
2022/01/11 00:55:34;;;;;;;6.22;2.00;;;8.60;99.90;;;;;;5052952;28;20260;-77
2022/01/11 00:58:02;;;;;;;4.95;2.15;;;8.60;99.90;;;;;;5052782;28;20029;-77
2022/01/11 01:00:30;;;;;;;7.40;2.00;;;8.60;99.90;;;;;;5052895;28;20430;-78
2022/01/11 01:02:56;;;;;;;6.15;2.05;;;8.70;99.90;;;;;;5052473;28;20025;-77
2022/01/11 01:05:22;;;;;;;5.88;2.22;;;8.60;99.90;;;;;;5052818;28;20068;-77
2022/01/11 01:07:49;;;;;;;5.37;2.10;;;8.70;99.90;;;;;;5034227;28;20052;-76
2022/01/11 01:10:26;;;;;;;;;;;8.70;99.90;;;;;;5052741;28;20017;-77
2022/01/11 01:12:58;;;;;;;4.00;2.15;;;8.60;99.90;;;;;;5052213;28;19905;-77
2022/01/11 01:15:26;;;;;;;6.30;2.13;;;8.50;99.90;;;;;;5052395;28;20385;-78
2022/01/11 01:17:53;;;;;;;4.95;1.85;;;8.50;99.90;;;;;;5052225;28;20465;-76
2022/01/11 01:20:19;;;;;;;;;;;8.50;99.90;;;;;;5052792;28;20461;-77
2022/01/11 01:22:50;;;;;;;2.97;1.40;;;8.50;99.90;;;;;;5052018;28;19905;-77
2022/01/11 01:25:17;;;;;;;3.03;1.73;;;8.60;99.90;;;;;;5052291;28;20044;-77
2022/01/11 01:27:44;;;;;;;5.10;2.00;;;8.60;99.90;;;;;;5052124;28;20124;-77
2022/01/11 01:30:10;;;;;;;3.25;1.70;;;8.60;99.90;;;;;;5052156;28;20115;-77
2022/01/11 01:33:01;;;;;;;5.78;2.05;;;8.50;99.90;;;;;;5052146;28;20060;-78
2022/01/11 01:35:33;;;;;;;6.22;2.17;;;8.50;99.90;;;;;;5052068;28;20184;-78
2022/01/11 01:37:59;;;;;;;4.25;2.13;;;8.50;99.90;;;;;;5052290;28;20032;-77
2022/01/11 01:40:26;;;;;;;4.35;1.90;;;8.50;99.90;;;;;;5051907;28;20473;-78
2022/01/11 01:42:52;;;;;;;;;;;8.50;99.90;;;;;;5052219;28;20175;-78
2022/01/11 01:45:23;;;;;;;7.13;3.30;;;8.50;99.90;;;;;;5052253;28;19994;-78
2022/01/11 01:47:56;;;;;;;6.55;1.85;;;8.50;99.90;;;;;;5052066;28;20036;-77
2022/01/11 01:50:23;;;;;;;5.93;1.80;;;8.50;99.90;;;;;;5052160;28;20029;-79
2022/01/11 01:52:49;;;;;;;3.45;1.80;;;8.40;99.90;;;;;;5052379;28;20032;-78
2022/01/11 01:55:16;;;;;;;5.50;2.10;;;8.50;99.90;;;;;;5052067;28;20029;-79
2022/01/11 01:57:42;;;;;;;3.65;1.80;;;8.40;99.90;;;;;;5051728;28;20092;-77
2022/01/11 02:00:12;;;;;;;4.45;2.20;;;8.30;99.90;;;;;;5052017;28;20488;-79
2022/01/11 02:02:39;;;;;;;5.93;1.80;;;8.30;99.90;;;;;;5051890;28;20116;-77
2022/01/11 02:05:06;;;;;;;3.70;1.95;;;8.20;99.90;;;;;;5051353;28;20064;-78
2022/01/11 02:07:34;;;;;;;4.88;2.33;;;8.20;99.90;;;;;;5051515;28;20036;-78
2022/01/11 02:10:01;;;;;;;6.30;2.10;;;8.20;99.90;;;;;;5051317;28;20025;-78
2022/01/11 02:12:30;;;;;;;5.90;1.75;;;8.20;99.90;;;;;;5051274;28;20039;-77
2022/01/11 02:14:56;;;;;;;3.30;1.90;;;8.20;99.90;;;;;;5051399;28;20040;-78
2022/01/11 02:17:25;;;;;;;2.92;1.70;;;8.20;99.90;;;;;;5051451;28;20025;-78
2022/01/11 02:19:53;;;;;;;2.90;1.30;;;8.20;99.90;;;;;;5051535;28;20414;-78
2022/01/11 02:22:19;;;;;;;2.70;1.40;;;8.10;99.90;;;;;;5017598;28;20116;-78
2022/01/11 02:24:45;;;;;;;2.75;1.20;;;8.10;99.90;;;;;;5051201;28;20104;-78
2022/01/11 02:27:12;;;;;;;3.50;1.27;;;8.10;99.90;;;;;;5050954;28;20068;-78
2022/01/11 02:29:38;;;;;;;3.35;1.10;;;8.10;99.90;;;;;;5050997;28;20032;-77
2022/01/11 02:32:05;;;;;;;2.40;1.00;;;8.00;99.90;;;;;;5051370;28;20040;-78
2022/01/11 02:34:31;;;;;;;8.07;2.42;;;8.00;99.90;;;;;;5051267;28;20128;-78
2022/01/11 02:36:57;;;;;;;3.90;1.05;;;8.00;99.90;;;;;;5032803;28;20437;-77
2022/01/11 02:39:23;;;;;;;2.13;0.87;;;8.00;99.90;;;;;;5050698;28;20377;-78
2022/01/11 02:41:53;;;;;;;1.60;0.90;;;8.00;99.90;;;;;;5051103;28;20024;-78
2022/01/11 02:44:20;;;;;;;1.20;0.70;;;7.90;99.90;;;;;;5051163;28;20025;-78
2022/01/11 02:46:46;;;;;;;3.05;0.88;;;7.90;99.90;;;;;;5050732;28;20763;-78
2022/01/11 02:49:12;;;;;;;2.72;0.90;;;7.90;99.90;;;;;;5050893;28;20426;-78
2022/01/11 02:51:38;;;;;;;1.77;1.00;;;7.90;99.90;;;;;;5051020;28;20017;-78
2022/01/11 02:54:05;;;;;;;1.80;0.93;;;7.80;99.90;;;;;;5050902;28;20068;-78
2022/01/11 02:56:31;;;;;;;1.77;0.90;;;7.70;99.90;;;;;;5050772;28;20123;-78
2022/01/11 02:58:58;;;;;;;1.67;0.80;;;7.70;99.90;;;;;;5049780;28;20044;-78
2022/01/11 03:01:25;;;;;;;1.25;0.80;;;7.70;99.90;;;;;;5050400;28;20049;-78
2022/01/11 03:03:52;;;;;;;2.65;1.00;;;7.60;99.90;;;;;;5050251;28;20425;-78
2022/01/11 03:06:18;;;;;;;1.70;0.75;;;7.60;99.90;;;;;;5050450;28;20356;-78
2022/01/11 03:08:46;;;;;;;2.38;0.90;;;7.60;99.90;;;;;;5050531;28;20489;-78
2022/01/11 03:11:16;;;;;;;3.15;0.98;;;7.70;99.90;;;;;;5050682;28;20028;-78
2022/01/11 03:13:43;;;;;;;1.60;0.90;;;7.80;99.90;;;;;;5050565;28;20510;-78
2022/01/11 03:16:15;;;;;;;1.52;0.80;;;7.80;99.90;;;;;;5050082;28;20024;-78
2022/01/11 03:18:42;;;;;;;2.00;0.75;;;7.70;99.90;;;;;;5050487;28;20515;-78
2022/01/11 03:21:09;;;;;;;1.90;0.90;;;7.80;99.90;;;;;;5050294;28;20013;-77
2022/01/11 03:23:35;;;;;;;1.75;0.70;;;7.70;99.90;;;;;;5050563;28;20102;-79
2022/01/11 03:26:02;;;;;;;3.57;1.07;;;7.70;99.90;;;;;;5050452;28;20033;-78
2022/01/11 03:28:28;;;;;;;;;;;7.70;99.90;;;;;;5050759;28;20112;-78
2022/01/11 03:30:54;;;;;;;2.63;0.73;;;7.70;99.90;;;;;;5050275;28;19940;-78
2022/01/11 03:33:21;;;;;;;1.93;0.70;;;7.70;99.90;;;;;;5032173;28;20032;-78
2022/01/11 03:35:47;;;;;;;1.55;0.75;;;7.70;99.90;;;;;;5050175;28;20021;-79
2022/01/11 03:38:14;;;;;;;1.90;0.80;;;7.70;99.90;;;;;;5050217;28;20025;-78
2022/01/11 03:40:42;;;;;;;2.65;0.98;;;7.80;99.90;;;;;;5050466;28;20033;-78
2022/01/11 03:43:09;;;;;;;1.80;0.90;;;7.80;99.90;;;;;;5050164;28;20048;-78
2022/01/11 03:45:36;;;;;;;2.30;0.95;;;7.70;99.90;;;;;;5050160;28;20449;-78
2022/01/11 03:48:05;;;;;;;1.88;1.00;;;7.70;99.90;;;;;;5050030;28;20108;-79
2022/01/11 03:50:31;;;;;;;1.88;0.90;;;7.70;99.90;;;;;;5049798;28;20021;-78
2022/01/11 03:53:16;;;;;;;1.52;0.70;;;7.80;99.90;;;;;;5050101;28;20025;-78
2022/01/11 03:58:20;;;;;;;1.40;0.80;;;7.80;99.90;;;;;;5050242;28;20053;-78
2022/01/11 04:00:47;;;;;;;3.95;0.93;;;7.80;99.90;;;;;;5049911;28;20152;-78
2022/01/11 04:03:13;;;;;;;2.83;0.80;;;7.80;99.90;;;;;;5050066;28;20126;-78
2022/01/11 04:05:42;;;;;;;2.42;0.80;;;7.90;99.90;;;;;;5050149;28;20029;-78
2022/01/11 04:08:08;;;;;;;5.30;1.30;;;7.90;99.90;;;;;;5050410;28;20056;-78
2022/01/11 04:10:35;;;;;;;3.20;1.20;;;7.90;99.90;;;;;;5033480;28;20032;-78
2022/01/11 04:13:01;;;;;;;3.13;1.20;;;8.00;99.90;;;;;;5054528;28;20078;-78
2022/01/11 04:15:28;;;;;;;3.92;1.30;;;8.00;99.90;;;;;;5054530;28;20082;-78
2022/01/11 04:17:54;;;;;;;3.05;1.40;;;8.00;99.90;;;;;;5054079;28;20053;-78
2022/01/11 04:20:22;;;;;;;5.78;1.38;;;8.10;99.90;;;;;;5036195;28;20067;-78
2022/01/11 04:22:49;;;;;;;3.40;1.48;;;8.30;99.90;;;;;;5054332;28;20033;-78
2022/01/11 04:25:15;;;;;;;;;;;8.40;99.90;;;;;;5055796;28;20025;-78
2022/01/11 04:27:42;;;;;;;2.85;1.20;;;8.50;99.90;;;;;;5055200;28;20002;-78
2022/01/11 04:30:08;;;;;;;3.58;1.30;;;8.40;99.90;;;;;;5055665;28;20032;-78
2022/01/11 04:32:35;;;;;;;3.25;1.23;;;8.40;99.90;;;;;;5037258;28;20028;-78
2022/01/11 04:35:01;;;;;;;3.38;1.20;;;8.40;99.90;;;;;;5037134;28;20025;-78
2022/01/11 04:37:27;;;;;;;5.15;1.50;;;8.30;99.90;;;;;;5055516;28;20115;-78
2022/01/11 04:39:53;;;;;;;3.58;1.55;;;8.30;99.90;;;;;;5055204;28;20036;-78
2022/01/11 04:42:19;;;;;;;5.32;1.42;;;8.40;99.90;;;;;;5055025;28;20100;-78
2022/01/11 04:44:45;;;;;;;4.82;1.70;;;8.40;99.90;;;;;;5055339;28;20041;-78
2022/01/11 04:47:11;;;;;;;3.33;1.30;;;8.50;99.90;;;;;;5036652;28;20106;-77
2022/01/11 04:49:37;;;;;;;4.70;1.60;;;8.40;99.90;;;;;;5054444;28;20063;-78
2022/01/11 04:52:04;;;;;;;4.57;1.45;;;8.40;99.90;;;;;;5054679;28;20534;-78
2022/01/11 04:54:30;;;;;;;2.90;1.40;;;8.40;99.90;;;;;;5055158;28;20029;-80
2022/01/11 04:56:56;;;;;;;3.53;1.42;;;8.40;99.90;;;;;;5054741;28;20025;-78
2022/01/11 04:59:22;;;;;;;4.30;1.80;;;8.40;99.90;;;;;;5054546;28;20106;-77
2022/01/11 05:01:48;;;;;;;4.97;1.45;;;8.60;99.90;;;;;;5054568;28;20090;-78
2022/01/11 05:04:14;;;;;;;3.10;1.50;;;8.60;99.90;;;;;;5054442;28;20419;-77
2022/01/11 05:06:41;;;;;;;6.65;1.88;;;8.60;99.90;;;;;;5054701;28;20051;-77
2022/01/11 05:09:07;;;;;;;4.77;1.77;;;8.60;99.90;;;;;;5054629;28;20036;-77
2022/01/11 05:11:33;;;;;;;3.78;1.45;;;8.60;99.90;;;;;;5054269;28;20504;-77
2022/01/11 05:13:59;;;;;;;4.57;1.40;;;8.60;99.90;;;;;;5054462;28;20464;-77
2022/01/11 05:16:25;;;;;;;4.13;1.13;;;8.70;99.90;;;;;;5054388;28;20066;-77
2022/01/11 05:18:51;;;;;;;3.97;1.40;;;8.70;99.90;;;;;;5055406;28;20020;-77
2022/01/11 05:21:17;;;;;;;5.82;1.80;;;8.90;99.90;;;;;;5052822;28;20066;-77
2022/01/11 05:23:43;;;;;;;8.10;1.75;;;8.80;99.90;;;;;;5052900;28;20029;-77
2022/01/11 05:26:09;;;;;;;2.20;1.20;;;8.80;99.90;;;;;;5053599;28;20037;-77
2022/01/11 05:28:36;;;;;;;5.43;1.85;;;8.90;99.90;;;;;;5054312;28;20032;-77
2022/01/11 05:31:03;;;;;;;4.95;1.52;;;8.90;99.90;;;;;;5054897;28;20021;-78
2022/01/11 05:33:30;;;;;;;5.30;1.55;;;9.00;99.90;;;;;;5055022;28;20028;-77
2022/01/11 05:35:56;;;;;;;4.43;1.40;;;9.00;99.90;;;;;;5036857;28;20105;-77
2022/01/11 05:38:23;;;;;;;4.82;1.50;;;8.90;99.90;;;;;;5033387;28;20117;-76
2022/01/11 05:40:50;;;;;;;3.90;1.70;;;8.90;99.90;;;;;;5051809;28;20040;-77
2022/01/11 05:43:16;;;;;;;4.57;1.60;;;8.90;99.90;;;;;;5052882;28;20610;-78
2022/01/11 05:45:43;;;;;;;3.97;1.60;;;8.90;99.90;;;;;;5054960;28;20029;-77
2022/01/11 05:48:09;;;;;;;5.45;1.60;;;8.90;99.90;;;;;;5054120;28;20036;-78
2022/01/11 05:50:37;;;;;;;5.63;1.50;;;8.90;99.90;;;;;;5054776;28;20028;-77
2022/01/11 05:53:03;;;;;;;4.15;1.95;;;9.10;99.90;;;;;;5054353;28;20021;-77
2022/01/11 05:55:29;;;;;;;5.05;1.60;;;9.10;99.90;;;;;;5054532;28;20076;-76
2022/01/11 05:57:55;;;;;;;3.38;1.20;;;9.00;99.90;;;;;;5052742;28;20381;-77
2022/01/11 06:00:22;;;;;;;3.50;1.48;;;9.00;99.90;;;;;;5052721;28;20481;-77
2022/01/11 06:02:54;;;;;;;4.70;1.70;;;9.00;99.90;;;;;;5052254;28;20036;-71
2022/01/11 06:05:21;;;;;;;4.50;1.42;;;9.00;99.90;;;;;;5051133;28;20094;-71
2022/01/11 06:07:47;;;;;;;6.63;2.10;;;9.00;99.90;;;;;;5052844;28;20509;-75
2022/01/11 06:10:16;;;;;;;7.13;1.92;;;9.00;99.90;;;;;;5052561;28;20385;-74
2022/01/11 06:12:42;;;;;;;16.52;2.30;;;9.00;99.90;;;;;;5050681;28;20029;-76
2022/01/11 06:15:09;;;;;;;4.60;1.70;;;8.90;99.90;;;;;;5051918;28;20199;-75
2022/01/11 06:17:35;;;;;;;3.80;1.55;;;9.00;99.90;;;;;;5052837;28;20469;-76
2022/01/11 06:20:01;;;;;;;4.90;1.60;;;9.00;99.90;;;;;;5053231;28;20028;-76
2022/01/11 06:22:27;;;;;;;6.97;2.00;;;9.00;99.90;;;;;;5053175;28;20049;-76
2022/01/11 06:24:53;;;;;;;4.70;1.80;;;8.90;99.90;;;;;;5052955;28;20555;-76
2022/01/11 06:27:19;;;;;;;7.10;1.90;;;8.90;99.90;;;;;;5052938;28;20064;-75
2022/01/11 06:29:45;;;;;;;4.35;1.95;;;8.90;99.90;;;;;;5053090;28;20025;-76
2022/01/11 06:32:11;;;;;;;8.02;2.95;;;8.80;99.90;;;;;;5053122;28;20055;-75
2022/01/11 06:34:38;;;;;;;3.75;1.70;;;8.90;99.90;;;;;;5051676;28;20024;-76
2022/01/11 06:37:04;;;;;;;3.92;1.52;;;8.90;99.90;;;;;;5051170;28;20036;-76
2022/01/11 06:39:30;;;;;;;4.47;1.45;;;8.90;99.90;;;;;;5052048;28;20063;-81
2022/01/11 06:41:56;;;;;;;5.18;1.80;;;8.90;99.90;;;;;;5052264;28;20029;-83
2022/01/11 06:44:26;;;;;;;3.60;1.33;;;8.90;99.90;;;;;;5052078;28;20064;-79
2022/01/11 06:46:52;;;;;;;9.57;1.83;;;9.20;99.90;;;;;;5052006;28;20036;-77
2022/01/11 06:49:18;;;;;;;6.88;1.58;;;9.60;99.90;;;;;;5052094;28;20036;-77
2022/01/11 06:51:44;;;;;;;9.15;1.88;;;10.20;99.90;;;;;;5034397;28;20029;-77
2022/01/11 06:54:10;;;;;;;9.00;1.15;;;11.00;99.90;;;;;;5051700;28;20495;-77
2022/01/11 06:56:36;;;;;;;4.53;1.20;;;11.40;99.90;;;;;;5051761;28;20430;-78
2022/01/11 06:59:03;;;;;;;5.18;1.27;;;12.10;99.90;;;;;;5051522;28;20040;-78
2022/01/11 07:01:29;;;;;;;5.33;1.10;;;11.90;99.90;;;;;;5051498;28;20113;-75
2022/01/11 07:03:55;;;;;;;11.77;1.33;;;12.10;99.90;;;;;;5052063;28;20048;-78
2022/01/11 07:06:21;;;;;;;9.30;1.58;;;12.40;99.90;;;;;;5052317;28;20095;-74
2022/01/11 07:08:48;;;;;;;8.27;1.33;;;12.90;99.90;;;;;;5052751;28;20027;-73
2022/01/11 07:11:14;;;;;;;5.53;1.50;;;13.50;99.90;;;;;;5052320;28;20107;-75
2022/01/11 07:13:40;;;;;;;4.90;1.37;;;14.10;99.90;;;;;;5052513;28;20028;-73
2022/01/11 07:16:06;;;;;;;8.82;1.30;;;14.40;99.90;;;;;;5052844;28;20338;-74
2022/01/11 07:18:32;;;;;;;11.90;1.50;;;14.80;99.90;;;;;;5053143;28;20090;-73
2022/01/11 07:20:58;;;;;;;6.33;1.53;;;15.30;99.90;;;;;;5053153;28;20070;-74
2022/01/11 07:23:24;;;;;;;6.80;1.37;;;15.40;99.90;;;;;;5053149;28;20021;-73
2022/01/11 07:25:50;;;;;;;3.72;1.13;;;15.10;99.90;;;;;;5052890;28;20841;-73
2022/01/11 07:28:16;;;;;;;5.25;1.17;;;15.00;99.90;;;;;;5052984;28;20117;-73
2022/01/11 07:30:43;;;;;;;7.40;1.20;;;15.20;99.90;;;;;;5052826;28;20036;-73
2022/01/11 07:33:09;;;;;;;4.47;0.95;;;15.40;99.90;;;;;;5052794;28;20495;-72
2022/01/11 07:35:35;;;;;;;5.50;1.30;;;15.60;99.90;;;;;;5052816;28;20013;-74
2022/01/11 07:38:02;;;;;;;5.82;1.30;;;16.30;99.90;;;;;;5052631;28;20021;-74
2022/01/11 07:40:28;;;;;;;10.10;1.40;;;16.90;99.50;;;;;;5052871;28;20029;-74
2022/01/11 07:42:54;;;;;;;4.60;1.38;;;16.70;98.60;;;;;;5034947;28;20091;-73
2022/01/11 07:45:20;;;;;;;8.55;1.77;;;17.30;98.00;;;;;;5054462;28;20159;-72
2022/01/11 07:47:46;;;;;;;5.10;1.80;;;17.30;98.20;;;;;;5056361;28;20044;-74
2022/01/11 07:50:13;;;;;;;4.25;1.50;;;17.10;98.20;;;;;;5056418;28;20333;-73
2022/01/11 07:52:40;;;;;;;6.47;1.58;;;16.70;98.10;;;;;;5056584;28;20074;-72
2022/01/11 07:55:07;;;;;;;7.05;1.27;;;16.30;99.40;;;;;;5056575;28;20025;-74
2022/01/11 07:57:33;;;;;;;5.97;1.40;;;15.60;99.90;;;;;;5056449;28;20029;-73
2022/01/11 07:59:59;;;;;;;3.78;1.30;;;15.50;99.90;;;;;;5056183;28;20060;-71
2022/01/11 08:02:26;;;;;;;5.60;1.30;;;14.60;99.90;;;;;;5056579;28;20025;-73
2022/01/11 08:04:54;;;;;;;6.93;1.70;;;14.40;99.90;;;;;;5055566;28;20318;-72
2022/01/11 08:07:20;;;;;;;8.57;1.40;;;14.20;99.90;;;;;;5055965;28;20060;-74
2022/01/11 08:09:46;;;;;;;7.85;1.83;;;14.00;99.90;;;;;;5056275;28;20013;-73
2022/01/11 08:12:12;;;;;;;6.33;1.40;;;13.70;99.90;;;;;;5055775;28;20033;-72
2022/01/11 08:14:38;;;;;;;5.10;1.27;;;13.80;99.90;;;;;;5054918;28;20033;-73
2022/01/11 08:17:04;;;;;;;5.30;1.38;;;13.50;99.90;;;;;;5055685;28;20029;-71
2022/01/11 08:19:31;;;;;;;3.23;1.07;;;13.30;99.90;;;;;;5038061;28;20503;-73
2022/01/11 08:21:57;;;;;;;5.80;1.40;;;13.30;99.90;;;;;;5056078;28;20031;-73
2022/01/11 08:24:24;;;;;;;2.95;0.82;;;13.30;99.90;;;;;;5056089;28;20025;-74
2022/01/11 08:26:51;;;;;;;5.25;1.35;;;13.10;99.90;;;;;;5056163;28;20037;-72
2022/01/11 08:29:20;;;;;;;3.70;1.20;;;13.20;99.90;;;;;;5055666;28;20112;-73
2022/01/11 08:31:47;;;;;;;4.10;1.30;;;13.20;99.90;;;;;;5055784;28;20064;-73
2022/01/11 08:34:14;;;;;;;7.20;2.22;;;13.10;99.90;;;;;;5056337;28;20355;-73
2022/01/11 08:36:45;;;;;;;3.95;1.30;;;13.20;99.90;;;;;;5056057;28;20025;-73
2022/01/11 08:39:11;;;;;;;4.47;1.20;;;13.20;99.90;;;;;;5056288;28;20105;-73
2022/01/11 08:41:40;;;;;;;;;;;13.30;99.90;;;;;;5056134;28;20029;-72
2022/01/11 08:44:09;;;;;;;3.75;1.20;;;13.40;99.90;;;;;;5056004;28;19909;-72
2022/01/11 08:46:36;;;;;;;3.50;1.23;;;13.50;99.90;;;;;;5055435;28;20021;-72
2022/01/11 08:49:04;;;;;;;4.97;1.55;;;13.40;99.90;;;;;;5056347;28;20102;-72
2022/01/11 08:51:30;;;;;;;9.77;1.50;;;13.40;99.90;;;;;;5055884;28;20103;-73
2022/01/11 08:53:56;;;;;;;4.23;1.50;;;13.60;99.90;;;;;;5054898;28;20055;-72
2022/01/11 08:56:22;;;;;;;5.90;1.50;;;13.60;99.90;;;;;;5054700;28;20017;-72
2022/01/11 08:58:48;;;;;;;8.43;1.77;;;13.70;99.90;;;;;;5055184;28;20163;-72
2022/01/11 09:01:14;;;;;;;6.03;2.00;;;13.90;99.90;;;;;;5055104;28;20025;-72
2022/01/11 09:03:40;;;;;;;6.55;2.08;;;14.00;99.90;;;;;;5054934;28;20468;-73
2022/01/11 09:06:08;;;;;;;7.97;1.73;;;14.10;99.90;;;;;;5055140;28;20119;-73
2022/01/11 09:08:36;;;;;;;8.65;1.50;;;14.20;99.90;;;;;;5055181;28;20755;-72
2022/01/11 09:11:04;;;;;;;5.72;1.42;;;14.10;99.90;;;;;;5054096;28;20028;-73
2022/01/11 09:13:31;;;;;;;6.20;1.60;;;14.10;99.90;;;;;;5054865;28;20043;-72
2022/01/11 09:15:57;;;;;;;7.32;1.70;;;14.30;99.90;;;;;;5055031;28;20436;-73
2022/01/11 09:18:23;;;;;;;9.10;1.87;;;14.40;99.90;;;;;;5055269;28;20058;-73
2022/01/11 09:20:49;;;;;;;6.03;1.43;;;14.60;99.90;;;;;;5055008;28;20029;-73
2022/01/11 09:23:15;;;;;;;9.03;1.57;;;14.40;99.90;;;;;;5055135;28;20028;-73
2022/01/11 09:25:41;;;;;;;7.50;1.67;;;14.40;99.90;;;;;;5054871;28;20028;-73
2022/01/11 09:28:07;;;;;;;6.85;1.85;;;14.50;99.90;;;;;;5054251;28;20184;-73
2022/01/11 09:30:33;;;;;;;13.47;2.30;;;14.10;99.90;;;;;;5054374;28;20025;-73
2022/01/11 09:32:59;;;;;;;5.30;1.55;;;13.70;99.90;;;;;;5054171;28;20465;-72
2022/01/11 09:35:26;;;;;;;7.50;1.57;;;13.90;99.90;;;;;;5054132;28;20037;-72
2022/01/11 09:37:52;;;;;;;13.27;3.03;;;14.00;99.90;;;;;;5054130;28;20295;-73
2022/01/11 09:40:18;;;;;;;8.65;2.10;;;14.20;99.90;;;;;;5052725;28;20036;-72
2022/01/11 09:42:45;;;;;;;10.75;2.13;;;14.10;99.90;;;;;;5053503;28;20096;-72
2022/01/11 09:45:12;;;;;;;;;;;14.00;99.90;;;;;;5054096;28;20466;-72
2022/01/11 09:47:42;;;;;;;8.45;1.90;;;14.20;99.90;;;;;;5053914;28;19917;-74
2022/01/11 09:50:10;;;;;;;7.35;2.10;;;14.00;99.90;;;;;;5053186;28;20044;-75
2022/01/11 09:52:37;;;;;;;7.32;1.90;;;14.00;99.90;;;;;;5035450;28;20044;-73
2022/01/11 09:55:05;;;;;;;8.48;2.15;;;13.90;99.90;;;;;;5053755;28;20059;-72
2022/01/11 09:57:32;;;;;;;8.85;2.55;;;13.90;99.90;;;;;;5053390;28;20032;-73
2022/01/11 09:59:58;;;;;;;6.70;2.08;;;14.20;99.90;;;;;;5053321;28;20021;-74
2022/01/11 10:02:24;;;;;;;7.63;1.80;;;14.20;99.90;;;;;;5053443;28;20526;-73
2022/01/11 10:04:58;;;;;;;9.03;1.90;;;14.20;99.90;;;;;;5053247;28;20045;-73
2022/01/11 10:07:29;;;;;;;7.22;2.00;;;14.20;99.90;;;;;;5053569;28;20294;-75
2022/01/11 10:09:59;;;;;;;12.52;2.15;;;14.20;99.90;;;;;;5052797;28;20090;-72
2022/01/11 10:12:26;;;;;;;11.00;2.30;;;14.30;99.90;;;;;;5053015;28;20033;-74
2022/01/11 10:14:55;;;;;;;9.18;2.30;;;14.50;99.90;;;;;;5053010;28;20032;-73
2022/01/11 10:17:27;;;;;;;7.82;1.80;;;14.50;99.90;;;;;;5052812;28;20028;-73
2022/01/11 10:20:14;;;;;;;6.18;1.80;;;14.50;99.90;;;;;;5053282;28;20013;-73
2022/01/11 10:22:48;;;;;;;7.00;1.80;;;14.10;99.90;;;;;;5052730;28;20108;-72
2022/01/11 10:25:15;;;;;;;6.85;1.77;;;14.20;99.90;;;;;;5052528;28;20036;-73
2022/01/11 10:27:41;;;;;;;7.82;1.63;;;14.50;99.90;;;;;;5052552;28;20486;-74
2022/01/11 10:30:15;;;;;;;7.00;1.85;;;14.50;99.90;;;;;;5052724;28;20529;-75
2022/01/11 10:32:46;;;;;;;6.22;1.70;;;14.50;99.90;;;;;;5052879;28;20074;-73
2022/01/11 10:35:18;;;;;;;5.75;2.00;;;14.60;99.90;;;;;;5052627;28;20488;-73
2022/01/11 10:37:46;;;;;;;9.18;1.90;;;14.60;99.90;;;;;;5052371;28;20057;-73
2022/01/11 10:40:17;;;;;;;6.40;1.75;;;14.70;99.90;;;;;;5052327;28;20539;-72
2022/01/11 10:42:56;;;;;;;6.03;1.58;;;14.80;99.90;;;;;;5052326;28;20028;-73
2022/01/11 10:45:28;;;;;;;8.43;1.65;;;14.80;99.90;;;;;;5051762;28;20098;-73
2022/01/11 10:48:04;;;;;;;4.40;1.25;;;14.80;99.90;;;;;;5034092;28;20104;-73
2022/01/11 10:50:37;;;;;;;3.72;1.33;;;14.70;99.40;;;;;;5052222;28;20104;-73
2022/01/11 10:53:24;;;;;;;7.90;1.48;;;14.30;99.80;;;;;;5052299;28;20029;-72
2022/01/11 10:55:59;;;;;;;4.53;1.60;;;14.50;99.90;;;;;;5052044;28;20025;-73
2022/01/11 10:58:36;;;;;;;5.85;1.50;;;14.40;99.80;;;;;;5052161;28;20330;-73
2022/01/11 11:01:03;;;;;;;;;;;14.40;99.90;;;;;;5052648;28;20381;-73
2022/01/11 11:03:32;;;;;;;4.35;1.50;;;14.30;99.90;;;;;;5052269;28;19944;-74
2022/01/11 11:06:00;;;;;;;4.85;1.50;;;14.20;99.90;;;;;;5051700;28;20044;-74
2022/01/11 11:08:33;;;;;;;6.70;1.55;;;14.10;99.90;;;;;;5052050;28;20484;-73
2022/01/11 11:11:02;;;;;;;5.85;1.27;;;14.30;99.90;;;;;;5051636;28;20187;-71
2022/01/11 11:13:34;;;;;;;6.18;1.55;;;14.40;99.90;;;;;;5051913;28;20029;-73
2022/01/11 11:16:22;;;;;;;4.78;1.40;;;14.60;99.90;;;;;;5051956;28;20469;-73
2022/01/11 11:18:54;;;;;;;8.25;1.70;;;14.90;99.90;;;;;;5052713;28;20041;-73
2022/01/11 11:21:23;;;;;;;5.68;1.40;;;14.80;99.90;;;;;;5052770;28;20024;-71
2022/01/11 11:23:52;;;;;;;4.95;1.65;;;14.80;99.90;;;;;;5052474;28;20025;-74
2022/01/11 11:26:19;;;;;;;7.30;1.70;;;15.00;99.90;;;;;;5052361;28;20086;-73
2022/01/11 11:28:45;;;;;;;;;;;15.30;99.10;;;;;;5052767;28;20422;-73
2022/01/11 11:31:11;;;;;;;6.10;1.60;;;15.40;99.10;;;;;;5052759;28;19931;-72
2022/01/11 11:33:39;;;;;;;6.05;1.80;;;15.60;99.60;;;;;;5052606;28;20021;-73
2022/01/11 11:36:08;;;;;;;3.75;1.30;;;16.00;99.50;;;;;;5053085;28;20025;-73
2022/01/11 11:38:39;;;;;;;5.60;1.65;;;16.30;99.00;;;;;;5052002;28;20044;-73
2022/01/11 11:41:06;;;;;;;5.93;1.50;;;16.30;98.50;;;;;;5052112;28;20027;-71
2022/01/11 11:43:33;;;;;;;;;;;16.10;98.30;;;;;;5052383;28;20040;-73
2022/01/11 11:45:59;;;;;;;6.20;1.67;;;16.00;98.40;;;;;;5051655;28;19980;-74
2022/01/11 11:48:27;;;;;;;7.70;1.70;;;15.90;99.20;;;;;;5052392;28;20484;-72
2022/01/11 11:51:05;;;;;;;5.07;1.50;;;16.00;98.60;;;;;;5052264;28;20342;-71
2022/01/11 11:53:37;;;;;;;4.05;1.20;;;15.50;98.50;;;;;;5052542;28;20535;-71
2022/01/11 11:56:25;;;;;;;6.93;1.50;;;15.10;99.10;;;;;;5052487;28;20469;-73
2022/01/11 11:58:57;;;;;;;8.23;1.90;;;14.90;99.70;;;;;;5052652;28;20104;-72
2022/01/11 12:01:42;;;;;;;5.10;1.48;;;15.10;99.50;;;;;;5052420;28;20060;-72
2022/01/11 12:04:27;;;;;;;5.20;1.38;;;15.10;99.70;;;;;;5052307;28;20056;-73
2022/01/11 12:06:55;;;;;;;5.88;1.67;;;15.20;99.40;;;;;;5033963;28;20040;-73
2022/01/11 12:09:22;;;;;;;4.55;1.30;;;15.30;99.10;;;;;;5051670;28;20025;-72
2022/01/11 12:11:50;;;;;;;6.55;1.50;;;15.30;99.20;;;;;;5051907;28;20071;-73
2022/01/11 12:14:32;;;;;;;4.40;1.40;;;15.30;98.90;;;;;;5033823;28;20477;-73
2022/01/11 12:17:23;;;;;;;8.13;1.58;;;15.20;98.80;;;;;;5052288;28;20025;-74
2022/01/11 12:19:51;;;;;;;6.50;2.17;;;15.20;98.60;;;;;;5051833;28;20106;-73
2022/01/11 12:22:30;;;;;;;4.93;1.75;;;15.30;99.40;;;;;;5051819;28;20036;-73
2022/01/11 12:24:59;;;;;;;4.15;1.67;;;15.40;99.50;;;;;;5033965;28;20400;-72
2022/01/11 12:27:26;;;;;;;8.02;2.10;;;15.20;99.80;;;;;;5052090;28;20128;-75
2022/01/11 12:29:54;;;;;;;5.18;1.80;;;15.20;99.90;;;;;;5052561;28;20017;-74
2022/01/11 12:32:21;;;;;;;6.82;1.90;;;15.20;99.50;;;;;;5053939;28;20108;-73
2022/01/11 12:34:50;;;;;;;6.80;1.77;;;14.70;99.90;;;;;;5055701;28;20032;-73
2022/01/11 12:37:44;;;;;;;9.20;2.10;;;14.70;99.90;;;;;;5055934;28;20358;-73
2022/01/11 12:40:26;;;;;;;9.20;2.00;;;14.70;99.90;;;;;;5055649;28;20036;-72
2022/01/11 12:42:59;;;;;;;7.65;1.95;;;14.80;99.90;;;;;;5056118;28;20028;-73
2022/01/11 12:46:00;;;;;;;8.27;1.90;;;14.60;99.90;;;;;;5056124;28;20028;-72
2022/01/11 12:48:49;;;;;;;7.50;2.10;;;14.30;99.90;;;;;;5056186;28;20035;-74
2022/01/11 12:51:30;;;;;;;4.90;1.77;;;14.50;99.90;;;;;;5055194;28;20080;-73
2022/01/11 12:54:22;;;;;;;11.32;2.80;;;14.80;99.90;;;;;;5055156;28;20025;-74
2022/01/11 12:56:57;;;;;;;10.20;2.08;;;15.00;99.90;;;;;;5055151;28;20037;-75
2022/01/11 12:59:27;;;;;;;7.32;2.15;;;15.10;99.90;;;;;;5055038;28;20028;-73
2022/01/11 13:02:09;;;;;;;6.68;1.65;;;15.20;99.90;;;;;;5055069;28;20056;-72
2022/01/11 13:04:40;;;;;;;13.82;2.88;;;15.00;99.90;;;;;;5053710;28;20049;-74
2022/01/11 13:07:15;;;;;;;3.92;1.42;;;15.10;99.90;;;;;;5053529;28;20041;-74
2022/01/11 13:09:44;;;;;;;6.20;1.80;;;15.00;99.90;;;;;;5052222;28;20021;-74